sensor_id;sensor_type;location;lat;lon;timestamp;temperature;humidity
28189;DHT22;15471;51.166;4.470;2023-03-14T00:01:44;10.90;99.90
28189;DHT22;15471;51.166;4.470;2023-03-14T00:04:10;10.90;99.90
28189;DHT22;15471;51.166;4.470;2023-03-14T00:06:36;10.80;99.90
28189;DHT22;15471;51.166;4.470;2023-03-14T00:09:02;10.80;99.90
28189;DHT22;15471;51.166;4.470;2023-03-14T00:11:28;10.80;99.90
28189;DHT22;15471;51.166;4.470;2023-03-14T00:13:55;10.90;99.90
28189;DHT22;15471;51.166;4.470;2023-03-14T00:16:21;11.00;99.90
28189;DHT22;15471;51.166;4.470;2023-03-14T00:18:47;11.00;99.90
28189;DHT22;15471;51.166;4.470;2023-03-14T00:21:13;11.00;99.90
28189;DHT22;15471;51.166;4.470;2023-03-14T00:23:40;11.00;99.90
28189;DHT22;15471;51.166;4.470;2023-03-14T00:26:12;11.00;99.90
28189;DHT22;15471;51.166;4.470;2023-03-14T00:28:39;11.00;99.90
28189;DHT22;15471;51.166;4.470;2023-03-14T00:31:10;10.90;99.90
28189;DHT22;15471;51.166;4.470;2023-03-14T00:33:36;10.80;99.90
28189;DHT22;15471;51.166;4.470;2023-03-14T00:36:11;10.80;99.90
28189;DHT22;15471;51.166;4.470;2023-03-14T00:38:39;10.80;99.90
28189;DHT22;15471;51.166;4.470;2023-03-14T00:41:10;10.70;99.90
28189;DHT22;15471;51.166;4.470;2023-03-14T00:43:37;10.70;99.90
28189;DHT22;15471;51.166;4.470;2023-03-14T00:46:03;10.70;99.90
28189;DHT22;15471;51.166;4.470;2023-03-14T00:48:29;10.80;99.90
28189;DHT22;15471;51.166;4.470;2023-03-14T00:50:55;10.90;99.90
28189;DHT22;15471;51.166;4.470;2023-03-14T00:53:21;10.90;99.90
28189;DHT22;15471;51.166;4.470;2023-03-14T00:55:47;10.90;99.90
28189;DHT22;15471;51.166;4.470;2023-03-14T00:58:14;11.00;99.90
28189;DHT22;15471;51.166;4.470;2023-03-14T01:00:41;11.00;99.90
28189;DHT22;15471;51.166;4.470;2023-03-14T01:03:08;11.00;99.90
28189;DHT22;15471;51.166;4.470;2023-03-14T01:05:34;11.00;99.90
28189;DHT22;15471;51.166;4.470;2023-03-14T01:08:01;11.10;99.90
28189;DHT22;15471;51.166;4.470;2023-03-14T01:10:27;11.20;99.90
28189;DHT22;15471;51.166;4.470;2023-03-14T01:12:53;11.20;99.90
28189;DHT22;15471;51.166;4.470;2023-03-14T01:15:19;11.20;99.90
28189;DHT22;15471;51.166;4.470;2023-03-14T01:17:45;11.20;99.90
28189;DHT22;15471;51.166;4.470;2023-03-14T01:20:13;11.20;99.90
28189;DHT22;15471;51.166;4.470;2023-03-14T01:22:40;11.30;99.90
28189;DHT22;15471;51.166;4.470;2023-03-14T01:25:08;11.10;99.90
28189;DHT22;15471;51.166;4.470;2023-03-14T01:27:34;11.10;99.90
28189;DHT22;15471;51.166;4.470;2023-03-14T01:30:00;11.10;99.90
28189;DHT22;15471;51.166;4.470;2023-03-14T01:32:26;11.10;99.90
28189;DHT22;15471;51.166;4.470;2023-03-14T01:34:52;11.10;99.90
28189;DHT22;15471;51.166;4.470;2023-03-14T01:37:18;11.10;99.90
28189;DHT22;15471;51.166;4.470;2023-03-14T01:39:46;11.10;99.90
28189;DHT22;15471;51.166;4.470;2023-03-14T01:42:13;11.00;99.90
28189;DHT22;15471;51.166;4.470;2023-03-14T01:47:17;10.90;99.90
28189;DHT22;15471;51.166;4.470;2023-03-14T01:49:46;10.90;99.90
28189;DHT22;15471;51.166;4.470;2023-03-14T01:52:43;10.90;99.90
28189;DHT22;15471;51.166;4.470;2023-03-14T01:55:17;10.90;99.90
28189;DHT22;15471;51.166;4.470;2023-03-14T01:57:49;11.00;99.90
28189;DHT22;15471;51.166;4.470;2023-03-14T02:00:19;10.90;99.90
28189;DHT22;15471;51.166;4.470;2023-03-14T02:02:59;10.90;99.90
28189;DHT22;15471;51.166;4.470;2023-03-14T02:05:29;11.00;99.90
28189;DHT22;15471;51.166;4.470;2023-03-14T02:08:05;11.00;99.90
28189;DHT22;15471;51.166;4.470;2023-03-14T02:10:40;10.90;99.90
28189;DHT22;15471;51.166;4.470;2023-03-14T02:13:09;10.80;99.90
28189;DHT22;15471;51.166;4.470;2023-03-14T02:15:44;10.70;99.90
28189;DHT22;15471;51.166;4.470;2023-03-14T02:18:17;10.70;99.90
28189;DHT22;15471;51.166;4.470;2023-03-14T02:26:10;10.80;99.90
28189;DHT22;15471;51.166;4.470;2023-03-14T02:28:36;10.80;99.90
28189;DHT22;15471;51.166;4.470;2023-03-14T02:31:02;10.90;99.90
28189;DHT22;15471;51.166;4.470;2023-03-14T02:33:33;10.80;99.90
28189;DHT22;15471;51.166;4.470;2023-03-14T02:36:07;10.90;99.90
28189;DHT22;15471;51.166;4.470;2023-03-14T02:38:37;10.80;99.90
28189;DHT22;15471;51.166;4.470;2023-03-14T02:41:05;10.80;99.90
28189;DHT22;15471;51.166;4.470;2023-03-14T02:43:35;10.80;99.90
28189;DHT22;15471;51.166;4.470;2023-03-14T02:46:05;10.70;99.90
28189;DHT22;15471;51.166;4.470;2023-03-14T02:48:41;10.80;99.90
28189;DHT22;15471;51.166;4.470;2023-03-14T02:51:10;10.80;99.90
28189;DHT22;15471;51.166;4.470;2023-03-14T02:53:38;10.80;99.90
28189;DHT22;15471;51.166;4.470;2023-03-14T02:56:10;10.80;99.90
28189;DHT22;15471;51.166;4.470;2023-03-14T02:58:36;10.70;99.90
28189;DHT22;15471;51.166;4.470;2023-03-14T03:01:25;10.60;99.90
28189;DHT22;15471;51.166;4.470;2023-03-14T03:03:51;10.50;99.90
28189;DHT22;15471;51.166;4.470;2023-03-14T03:06:19;10.50;99.90
28189;DHT22;15471;51.166;4.470;2023-03-14T03:08:44;10.50;99.90
28189;DHT22;15471;51.166;4.470;2023-03-14T03:11:10;10.50;99.90
28189;DHT22;15471;51.166;4.470;2023-03-14T03:13:36;10.50;99.90
28189;DHT22;15471;51.166;4.470;2023-03-14T03:16:04;10.50;99.90
28189;DHT22;15471;51.166;4.470;2023-03-14T03:18:30;10.60;99.90
28189;DHT22;15471;51.166;4.470;2023-03-14T03:21:02;10.50;99.90
28189;DHT22;15471;51.166;4.470;2023-03-14T03:23:29;10.50;99.90
28189;DHT22;15471;51.166;4.470;2023-03-14T03:25:55;10.50;99.90
28189;DHT22;15471;51.166;4.470;2023-03-14T03:28:20;10.50;99.90
28189;DHT22;15471;51.166;4.470;2023-03-14T03:30:47;10.50;99.90
28189;DHT22;15471;51.166;4.470;2023-03-14T03:33:13;10.50;99.90
28189;DHT22;15471;51.166;4.470;2023-03-14T03:35:44;10.50;99.90
28189;DHT22;15471;51.166;4.470;2023-03-14T03:38:10;10.50;99.90
28189;DHT22;15471;51.166;4.470;2023-03-14T03:40:37;10.40;99.90
28189;DHT22;15471;51.166;4.470;2023-03-14T03:43:04;10.40;99.90
28189;DHT22;15471;51.166;4.470;2023-03-14T03:45:31;10.30;99.90
28189;DHT22;15471;51.166;4.470;2023-03-14T03:47:57;10.30;99.90
28189;DHT22;15471;51.166;4.470;2023-03-14T03:50:23;10.20;99.90
28189;DHT22;15471;51.166;4.470;2023-03-14T03:52:48;10.20;99.90
28189;DHT22;15471;51.166;4.470;2023-03-14T03:55:14;10.20;99.90
28189;DHT22;15471;51.166;4.470;2023-03-14T03:57:40;10.20;99.90
28189;DHT22;15471;51.166;4.470;2023-03-14T04:00:07;10.20;99.90
28189;DHT22;15471;51.166;4.470;2023-03-14T04:02:42;10.30;99.90
28189;DHT22;15471;51.166;4.470;2023-03-14T04:05:12;10.20;99.90
28189;DHT22;15471;51.166;4.470;2023-03-14T04:07:43;10.20;99.90
28189;DHT22;15471;51.166;4.470;2023-03-14T04:10:10;10.10;99.90
28189;DHT22;15471;51.166;4.470;2023-03-14T04:12:40;10.10;99.90
28189;DHT22;15471;51.166;4.470;2023-03-14T04:15:12;10.10;99.90
28189;DHT22;15471;51.166;4.470;2023-03-14T04:17:43;10.10;99.90
28189;DHT22;15471;51.166;4.470;2023-03-14T04:20:11;10.10;99.90
28189;DHT22;15471;51.166;4.470;2023-03-14T04:22:39;10.00;99.90
28189;DHT22;15471;51.166;4.470;2023-03-14T04:25:06;10.10;99.90
28189;DHT22;15471;51.166;4.470;2023-03-14T04:27:36;10.10;99.90
28189;DHT22;15471;51.166;4.470;2023-03-14T04:30:06;10.10;99.90
28189;DHT22;15471;51.166;4.470;2023-03-14T04:32:49;10.20;99.90
28189;DHT22;15471;51.166;4.470;2023-03-14T04:35:15;10.20;99.90
28189;DHT22;15471;51.166;4.470;2023-03-14T04:37:41;10.20;99.90
28189;DHT22;15471;51.166;4.470;2023-03-14T04:40:10;10.30;99.90
28189;DHT22;15471;51.166;4.470;2023-03-14T04:42:37;10.20;99.90
28189;DHT22;15471;51.166;4.470;2023-03-14T04:45:03;10.20;99.90
28189;DHT22;15471;51.166;4.470;2023-03-14T04:47:31;10.20;99.90
28189;DHT22;15471;51.166;4.470;2023-03-14T04:49:58;10.10;99.90
28189;DHT22;15471;51.166;4.470;2023-03-14T04:52:25;10.20;99.90
28189;DHT22;15471;51.166;4.470;2023-03-14T04:54:51;10.20;99.90
28189;DHT22;15471;51.166;4.470;2023-03-14T04:57:19;10.20;99.90
28189;DHT22;15471;51.166;4.470;2023-03-14T04:59:46;10.20;99.90
28189;DHT22;15471;51.166;4.470;2023-03-14T05:02:33;10.20;99.90
28189;DHT22;15471;51.166;4.470;2023-03-14T05:05:10;10.20;99.90
28189;DHT22;15471;51.166;4.470;2023-03-14T05:07:54;10.20;99.90
28189;DHT22;15471;51.166;4.470;2023-03-14T05:10:36;10.20;99.90
28189;DHT22;15471;51.166;4.470;2023-03-14T05:13:10;10.30;99.90
28189;DHT22;15471;51.166;4.470;2023-03-14T05:15:50;10.20;99.90
28189;DHT22;15471;51.166;4.470;2023-03-14T05:18:40;10.20;99.90
28189;DHT22;15471;51.166;4.470;2023-03-14T05:21:13;10.30;99.90
28189;DHT22;15471;51.166;4.470;2023-03-14T05:24:05;10.30;99.90
28189;DHT22;15471;51.166;4.470;2023-03-14T05:26:49;10.40;99.90
28189;DHT22;15471;51.166;4.470;2023-03-14T05:29:35;10.40;99.90
28189;DHT22;15471;51.166;4.470;2023-03-14T05:32:19;10.40;99.90
28189;DHT22;15471;51.166;4.470;2023-03-14T05:34:55;10.30;99.90
28189;DHT22;15471;51.166;4.470;2023-03-14T05:37:42;10.40;99.90
28189;DHT22;15471;51.166;4.470;2023-03-14T05:40:37;10.40;99.90
28189;DHT22;15471;51.166;4.470;2023-03-14T05:43:12;10.40;99.90
28189;DHT22;15471;51.166;4.470;2023-03-14T05:45:57;10.50;99.90
28189;DHT22;15471;51.166;4.470;2023-03-14T05:48:36;10.60;99.90
28189;DHT22;15471;51.166;4.470;2023-03-14T05:51:12;10.50;99.90
28189;DHT22;15471;51.166;4.470;2023-03-14T05:53:56;10.50;99.90
28189;DHT22;15471;51.166;4.470;2023-03-14T05:56:57;10.50;99.90
28189;DHT22;15471;51.166;4.470;2023-03-14T05:59:56;10.50;99.90
28189;DHT22;15471;51.166;4.470;2023-03-14T06:02:49;10.50;99.90
28189;DHT22;15471;51.166;4.470;2023-03-14T06:05:21;10.50;99.90
28189;DHT22;15471;51.166;4.470;2023-03-14T06:07:49;10.50;99.90
28189;DHT22;15471;51.166;4.470;2023-03-14T06:10:15;10.50;99.90
28189;DHT22;15471;51.166;4.470;2023-03-14T06:12:41;10.50;99.90
28189;DHT22;15471;51.166;4.470;2023-03-14T06:15:07;10.40;99.90
28189;DHT22;15471;51.166;4.470;2023-03-14T06:17:34;10.40;99.90
28189;DHT22;15471;51.166;4.470;2023-03-14T06:20:05;10.40;99.90
28189;DHT22;15471;51.166;4.470;2023-03-14T06:22:32;10.40;99.90
28189;DHT22;15471;51.166;4.470;2023-03-14T06:24:58;10.40;99.90
28189;DHT22;15471;51.166;4.470;2023-03-14T06:27:25;10.40;99.90
28189;DHT22;15471;51.166;4.470;2023-03-14T06:29:54;10.30;99.90
28189;DHT22;15471;51.166;4.470;2023-03-14T06:32:20;10.30;99.90
28189;DHT22;15471;51.166;4.470;2023-03-14T06:34:48;10.40;99.90
28189;DHT22;15471;51.166;4.470;2023-03-14T06:37:14;10.40;99.90
28189;DHT22;15471;51.166;4.470;2023-03-14T06:39:41;10.00;99.90
28189;DHT22;15471;51.166;4.470;2023-03-14T06:42:14;8.80;99.90
28189;DHT22;15471;51.166;4.470;2023-03-14T06:44:41;8.10;99.90
28189;DHT22;15471;51.166;4.470;2023-03-14T06:47:07;7.70;99.90
28189;DHT22;15471;51.166;4.470;2023-03-14T06:49:34;7.50;99.90
28189;DHT22;15471;51.166;4.470;2023-03-14T06:52:01;7.40;99.90
28189;DHT22;15471;51.166;4.470;2023-03-14T06:54:29;7.40;99.90
28189;DHT22;15471;51.166;4.470;2023-03-14T06:56:56;7.40;99.90
28189;DHT22;15471;51.166;4.470;2023-03-14T06:59:22;7.30;99.90
28189;DHT22;15471;51.166;4.470;2023-03-14T07:01:49;7.30;99.90
28189;DHT22;15471;51.166;4.470;2023-03-14T07:04:17;7.20;99.90
28189;DHT22;15471;51.166;4.470;2023-03-14T07:06:46;7.20;99.90
28189;DHT22;15471;51.166;4.470;2023-03-14T07:09:14;7.10;99.90
28189;DHT22;15471;51.166;4.470;2023-03-14T07:11:48;7.10;99.90
28189;DHT22;15471;51.166;4.470;2023-03-14T07:14:15;7.10;99.90
28189;DHT22;15471;51.166;4.470;2023-03-14T07:16:41;7.20;99.90
28189;DHT22;15471;51.166;4.470;2023-03-14T07:19:08;7.10;99.90
28189;DHT22;15471;51.166;4.470;2023-03-14T07:21:34;7.10;99.90
28189;DHT22;15471;51.166;4.470;2023-03-14T07:24:06;7.00;99.90
28189;DHT22;15471;51.166;4.470;2023-03-14T07:26:32;7.00;99.90
28189;DHT22;15471;51.166;4.470;2023-03-14T07:29:01;6.90;99.90
28189;DHT22;15471;51.166;4.470;2023-03-14T07:31:29;6.90;99.90
28189;DHT22;15471;51.166;4.470;2023-03-14T07:33:55;6.80;99.90
28189;DHT22;15471;51.166;4.470;2023-03-14T07:36:23;6.80;99.90
28189;DHT22;15471;51.166;4.470;2023-03-14T07:38:49;6.80;99.90
28189;DHT22;15471;51.166;4.470;2023-03-14T07:41:32;6.70;99.90
28189;DHT22;15471;51.166;4.470;2023-03-14T07:44:17;6.70;99.90
28189;DHT22;15471;51.166;4.470;2023-03-14T07:46:42;6.80;99.90
28189;DHT22;15471;51.166;4.470;2023-03-14T07:49:08;6.80;99.90
28189;DHT22;15471;51.166;4.470;2023-03-14T07:51:34;6.80;99.90
28189;DHT22;15471;51.166;4.470;2023-03-14T07:54:00;6.80;99.90
28189;DHT22;15471;51.166;4.470;2023-03-14T07:56:26;6.80;99.90
28189;DHT22;15471;51.166;4.470;2023-03-14T07:58:51;6.80;99.90
28189;DHT22;15471;51.166;4.470;2023-03-14T08:01:17;6.80;99.90
28189;DHT22;15471;51.166;4.470;2023-03-14T08:03:43;6.90;99.90
28189;DHT22;15471;51.166;4.470;2023-03-14T08:06:09;6.90;99.90
28189;DHT22;15471;51.166;4.470;2023-03-14T08:08:35;6.90;99.90
28189;DHT22;15471;51.166;4.470;2023-03-14T08:11:05;6.90;99.90
28189;DHT22;15471;51.166;4.470;2023-03-14T08:13:31;7.10;99.90
28189;DHT22;15471;51.166;4.470;2023-03-14T08:15:57;7.10;99.90
28189;DHT22;15471;51.166;4.470;2023-03-14T08:18:23;7.10;99.90
28189;DHT22;15471;51.166;4.470;2023-03-14T08:20:49;7.10;99.90
28189;DHT22;15471;51.166;4.470;2023-03-14T08:23:14;7.20;99.90
28189;DHT22;15471;51.166;4.470;2023-03-14T08:25:40;7.30;99.90
28189;DHT22;15471;51.166;4.470;2023-03-14T08:28:06;7.30;99.90
28189;DHT22;15471;51.166;4.470;2023-03-14T08:30:32;7.30;99.90
28189;DHT22;15471;51.166;4.470;2023-03-14T08:32:58;7.30;99.90
28189;DHT22;15471;51.166;4.470;2023-03-14T08:35:25;7.30;99.90
28189;DHT22;15471;51.166;4.470;2023-03-14T08:37:51;7.30;99.90
28189;DHT22;15471;51.166;4.470;2023-03-14T08:40:18;7.40;99.90
28189;DHT22;15471;51.166;4.470;2023-03-14T08:42:44;7.40;99.90
28189;DHT22;15471;51.166;4.470;2023-03-14T08:45:13;7.40;99.90
28189;DHT22;15471;51.166;4.470;2023-03-14T08:47:39;7.40;99.90
28189;DHT22;15471;51.166;4.470;2023-03-14T08:50:06;7.50;99.90
28189;DHT22;15471;51.166;4.470;2023-03-14T08:52:32;7.60;99.90
28189;DHT22;15471;51.166;4.470;2023-03-14T08:54:58;7.50;99.90
28189;DHT22;15471;51.166;4.470;2023-03-14T08:57:25;7.60;99.90
28189;DHT22;15471;51.166;4.470;2023-03-14T08:59:56;7.70;99.90
28189;DHT22;15471;51.166;4.470;2023-03-14T09:02:23;7.60;99.90
28189;DHT22;15471;51.166;4.470;2023-03-14T09:04:53;7.40;99.90
28189;DHT22;15471;51.166;4.470;2023-03-14T09:07:19;7.00;99.90
28189;DHT22;15471;51.166;4.470;2023-03-14T09:09:45;6.80;99.90
28189;DHT22;15471;51.166;4.470;2023-03-14T09:12:11;6.80;99.90
28189;DHT22;15471;51.166;4.470;2023-03-14T09:14:37;6.80;99.90
28189;DHT22;15471;51.166;4.470;2023-03-14T09:17:03;6.80;99.90
28189;DHT22;15471;51.166;4.470;2023-03-14T09:19:30;6.90;99.90
28189;DHT22;15471;51.166;4.470;2023-03-14T09:21:56;6.90;99.90
28189;DHT22;15471;51.166;4.470;2023-03-14T09:24:22;6.90;99.90
28189;DHT22;15471;51.166;4.470;2023-03-14T09:26:51;6.90;99.90
28189;DHT22;15471;51.166;4.470;2023-03-14T09:29:16;6.60;99.90
28189;DHT22;15471;51.166;4.470;2023-03-14T09:31:42;6.60;99.90
28189;DHT22;15471;51.166;4.470;2023-03-14T09:34:08;6.60;99.90
28189;DHT22;15471;51.166;4.470;2023-03-14T09:36:34;6.70;99.90
28189;DHT22;15471;51.166;4.470;2023-03-14T09:38:59;6.90;99.90
28189;DHT22;15471;51.166;4.470;2023-03-14T09:41:28;6.80;99.90
28189;DHT22;15471;51.166;4.470;2023-03-14T09:44:09;6.90;99.90
28189;DHT22;15471;51.166;4.470;2023-03-14T09:46:38;6.90;99.90
28189;DHT22;15471;51.166;4.470;2023-03-14T09:49:11;6.70;99.90
28189;DHT22;15471;51.166;4.470;2023-03-14T09:51:38;6.60;99.90
28189;DHT22;15471;51.166;4.470;2023-03-14T09:54:05;6.50;99.90
28189;DHT22;15471;51.166;4.470;2023-03-14T09:56:35;6.50;99.90
28189;DHT22;15471;51.166;4.470;2023-03-14T09:59:05;6.50;99.90
28189;DHT22;15471;51.166;4.470;2023-03-14T10:01:39;6.50;99.90
28189;DHT22;15471;51.166;4.470;2023-03-14T10:04:15;6.60;99.90
28189;DHT22;15471;51.166;4.470;2023-03-14T10:06:44;6.60;99.90
28189;DHT22;15471;51.166;4.470;2023-03-14T10:09:19;6.60;99.90
28189;DHT22;15471;51.166;4.470;2023-03-14T10:11:55;6.60;99.90
28189;DHT22;15471;51.166;4.470;2023-03-14T10:14:30;6.70;99.90
28189;DHT22;15471;51.166;4.470;2023-03-14T10:17:05;7.00;99.90
28189;DHT22;15471;51.166;4.470;2023-03-14T10:19:31;7.00;99.90
28189;DHT22;15471;51.166;4.470;2023-03-14T10:22:00;6.90;99.90
28189;DHT22;15471;51.166;4.470;2023-03-14T10:24:30;6.90;99.90
28189;DHT22;15471;51.166;4.470;2023-03-14T10:27:04;6.90;99.90
28189;DHT22;15471;51.166;4.470;2023-03-14T10:29:32;6.70;99.90
28189;DHT22;15471;51.166;4.470;2023-03-14T10:34:29;6.80;99.90
28189;DHT22;15471;51.166;4.470;2023-03-14T10:36:58;6.70;99.90
28189;DHT22;15471;51.166;4.470;2023-03-14T10:42:18;6.70;99.90
28189;DHT22;15471;51.166;4.470;2023-03-14T10:44:46;6.70;99.90
28189;DHT22;15471;51.166;4.470;2023-03-14T10:47:18;6.90;99.90
28189;DHT22;15471;51.166;4.470;2023-03-14T10:49:45;7.10;99.90
28189;DHT22;15471;51.166;4.470;2023-03-14T10:52:26;7.30;99.90
28189;DHT22;15471;51.166;4.470;2023-03-14T10:55:18;7.40;99.90
28189;DHT22;15471;51.166;4.470;2023-03-14T10:57:44;7.30;99.90
28189;DHT22;15471;51.166;4.470;2023-03-14T11:00:21;7.30;99.90
28189;DHT22;15471;51.166;4.470;2023-03-14T11:03:04;7.40;99.90
28189;DHT22;15471;51.166;4.470;2023-03-14T11:05:41;7.50;99.90
28189;DHT22;15471;51.166;4.470;2023-03-14T11:08:23;7.60;99.90
28189;DHT22;15471;51.166;4.470;2023-03-14T11:10:55;7.70;99.90
28189;DHT22;15471;51.166;4.470;2023-03-14T11:19:29;7.60;99.90
28189;DHT22;15471;51.166;4.470;2023-03-14T11:24:48;7.70;99.90
28189;DHT22;15471;51.166;4.470;2023-03-14T11:27:18;7.60;99.90
28189;DHT22;15471;51.166;4.470;2023-03-14T11:32:54;7.40;99.90
28189;DHT22;15471;51.166;4.470;2023-03-14T11:35:44;7.00;99.90
28189;DHT22;15471;51.166;4.470;2023-03-14T11:38:30;6.40;99.90
28189;DHT22;15471;51.166;4.470;2023-03-14T11:40:59;5.90;99.90
28189;DHT22;15471;51.166;4.470;2023-03-14T11:43:39;5.50;99.90
28189;DHT22;15471;51.166;4.470;2023-03-14T11:46:31;5.40;99.90
28189;DHT22;15471;51.166;4.470;2023-03-14T11:51:41;5.30;99.90
28189;DHT22;15471;51.166;4.470;2023-03-14T11:57:02;5.70;99.90
28189;DHT22;15471;51.166;4.470;2023-03-14T11:59:50;5.90;99.90
28189;DHT22;15471;51.166;4.470;2023-03-14T12:05:03;6.00;99.90
28189;DHT22;15471;51.166;4.470;2023-03-14T12:10:19;6.70;99.90
28189;DHT22;15471;51.166;4.470;2023-03-14T12:12:45;6.80;99.90
28189;DHT22;15471;51.166;4.470;2023-03-14T12:15:22;7.00;99.90
28189;DHT22;15471;51.166;4.470;2023-03-14T12:17:54;7.20;99.90
28189;DHT22;15471;51.166;4.470;2023-03-14T12:20:29;7.40;99.90
28189;DHT22;15471;51.166;4.470;2023-03-14T12:22:57;7.60;99.90
28189;DHT22;15471;51.166;4.470;2023-03-14T12:25:29;7.50;99.90
28189;DHT22;15471;51.166;4.470;2023-03-14T12:30:54;7.10;99.90
28189;DHT22;15471;51.166;4.470;2023-03-14T12:33:27;7.00;99.90
28189;DHT22;15471;51.166;4.470;2023-03-14T12:36:01;6.20;99.90
28189;DHT22;15471;51.166;4.470;2023-03-14T12:43:36;5.10;99.90
28189;DHT22;15471;51.166;4.470;2023-03-14T12:51:39;5.60;99.90
28189;DHT22;15471;51.166;4.470;2023-03-14T12:57:03;6.20;99.90
28189;DHT22;15471;51.166;4.470;2023-03-14T12:59:34;6.50;99.90
28189;DHT22;15471;51.166;4.470;2023-03-14T13:10:15;6.40;99.90
28189;DHT22;15471;51.166;4.470;2023-03-14T13:18:27;6.30;99.90
28189;DHT22;15471;51.166;4.470;2023-03-14T13:21:22;6.40;99.90
28189;DHT22;15471;51.166;4.470;2023-03-14T13:24:01;6.40;99.90
28189;DHT22;15471;51.166;4.470;2023-03-14T13:26:39;6.50;99.90
28189;DHT22;15471;51.166;4.470;2023-03-14T13:29:17;6.60;99.90
28189;DHT22;15471;51.166;4.470;2023-03-14T13:31:53;6.60;99.90
28189;DHT22;15471;51.166;4.470;2023-03-14T13:34:20;6.70;99.90
28189;DHT22;15471;51.166;4.470;2023-03-14T13:36:46;6.80;99.90
28189;DHT22;15471;51.166;4.470;2023-03-14T13:39:21;6.80;99.90
28189;DHT22;15471;51.166;4.470;2023-03-14T13:41:58;6.80;99.90
28189;DHT22;15471;51.166;4.470;2023-03-14T13:47:00;6.80;99.90
28189;DHT22;15471;51.166;4.470;2023-03-14T13:49:29;6.80;99.90
28189;DHT22;15471;51.166;4.470;2023-03-14T13:51:56;6.90;99.90
28189;DHT22;15471;51.166;4.470;2023-03-14T13:54:22;7.00;99.90
28189;DHT22;15471;51.166;4.470;2023-03-14T13:57:02;6.90;99.90
28189;DHT22;15471;51.166;4.470;2023-03-14T13:59:31;6.90;99.90
28189;DHT22;15471;51.166;4.470;2023-03-14T14:02:00;7.00;99.90
28189;DHT22;15471;51.166;4.470;2023-03-14T14:04:26;7.00;99.90
28189;DHT22;15471;51.166;4.470;2023-03-14T14:06:57;7.10;99.90
28189;DHT22;15471;51.166;4.470;2023-03-14T14:09:29;7.10;99.90
28189;DHT22;15471;51.166;4.470;2023-03-14T14:14:34;7.00;99.90
28189;DHT22;15471;51.166;4.470;2023-03-14T14:17:05;6.90;99.90
28189;DHT22;15471;51.166;4.470;2023-03-14T14:19:33;6.70;99.90
28189;DHT22;15471;51.166;4.470;2023-03-14T14:21:59;6.50;99.90
28189;DHT22;15471;51.166;4.470;2023-03-14T14:24:30;6.40;99.90
28189;DHT22;15471;51.166;4.470;2023-03-14T14:27:08;6.50;99.90
28189;DHT22;15471;51.166;4.470;2023-03-14T14:29:34;6.50;99.90
28189;DHT22;15471;51.166;4.470;2023-03-14T14:37:47;6.30;99.90
28189;DHT22;15471;51.166;4.470;2023-03-14T14:40:21;6.20;99.90
28189;DHT22;15471;51.166;4.470;2023-03-14T14:42:49;6.20;99.90
28189;DHT22;15471;51.166;4.470;2023-03-14T14:45:21;6.30;99.90
28189;DHT22;15471;51.166;4.470;2023-03-14T14:47:56;6.40;99.90
28189;DHT22;15471;51.166;4.470;2023-03-14T14:50:33;6.60;99.90
28189;DHT22;15471;51.166;4.470;2023-03-14T14:53:23;6.80;99.90
28189;DHT22;15471;51.166;4.470;2023-03-14T14:55:51;6.80;99.90
28189;DHT22;15471;51.166;4.470;2023-03-14T14:58:24;6.80;99.90
28189;DHT22;15471;51.166;4.470;2023-03-14T15:00:55;6.80;99.90
28189;DHT22;15471;51.166;4.470;2023-03-14T15:03:21;6.80;99.90
28189;DHT22;15471;51.166;4.470;2023-03-14T15:05:47;6.80;99.90
28189;DHT22;15471;51.166;4.470;2023-03-14T15:08:13;6.80;99.90
28189;DHT22;15471;51.166;4.470;2023-03-14T15:10:39;6.80;99.90
28189;DHT22;15471;51.166;4.470;2023-03-14T15:13:05;6.80;99.90
28189;DHT22;15471;51.166;4.470;2023-03-14T15:15:31;6.70;99.90
28189;DHT22;15471;51.166;4.470;2023-03-14T15:17:57;6.60;99.90
28189;DHT22;15471;51.166;4.470;2023-03-14T15:20:23;6.60;99.90
28189;DHT22;15471;51.166;4.470;2023-03-14T15:22:49;6.60;99.90
28189;DHT22;15471;51.166;4.470;2023-03-14T15:25:15;6.60;99.90
28189;DHT22;15471;51.166;4.470;2023-03-14T15:27:41;6.60;99.90
28189;DHT22;15471;51.166;4.470;2023-03-14T15:30:17;6.50;99.90
28189;DHT22;15471;51.166;4.470;2023-03-14T15:32:44;6.50;99.90
28189;DHT22;15471;51.166;4.470;2023-03-14T15:35:10;6.50;99.90
28189;DHT22;15471;51.166;4.470;2023-03-14T15:37:36;6.50;99.90
28189;DHT22;15471;51.166;4.470;2023-03-14T15:40:03;6.60;99.90
28189;DHT22;15471;51.166;4.470;2023-03-14T15:42:37;6.70;99.90
28189;DHT22;15471;51.166;4.470;2023-03-14T15:45:03;6.60;99.90
28189;DHT22;15471;51.166;4.470;2023-03-14T15:47:29;6.60;99.90
28189;DHT22;15471;51.166;4.470;2023-03-14T15:49:57;6.50;99.90
28189;DHT22;15471;51.166;4.470;2023-03-14T15:52:24;6.40;99.90
28189;DHT22;15471;51.166;4.470;2023-03-14T15:54:50;6.40;99.90
28189;DHT22;15471;51.166;4.470;2023-03-14T15:57:15;6.40;99.90
28189;DHT22;15471;51.166;4.470;2023-03-14T15:59:41;6.40;99.90
28189;DHT22;15471;51.166;4.470;2023-03-14T16:02:09;6.30;99.90
28189;DHT22;15471;51.166;4.470;2023-03-14T16:04:35;6.30;99.90
28189;DHT22;15471;51.166;4.470;2023-03-14T16:07:01;6.30;99.90
28189;DHT22;15471;51.166;4.470;2023-03-14T16:09:27;6.30;99.90
28189;DHT22;15471;51.166;4.470;2023-03-14T16:11:53;6.30;99.90
28189;DHT22;15471;51.166;4.470;2023-03-14T16:14:19;6.30;99.90
28189;DHT22;15471;51.166;4.470;2023-03-14T16:16:45;6.30;99.90
28189;DHT22;15471;51.166;4.470;2023-03-14T16:19:11;6.30;99.90
28189;DHT22;15471;51.166;4.470;2023-03-14T16:21:36;6.30;99.90
28189;DHT22;15471;51.166;4.470;2023-03-14T16:24:04;6.20;99.90
28189;DHT22;15471;51.166;4.470;2023-03-14T16:26:31;6.20;99.90
28189;DHT22;15471;51.166;4.470;2023-03-14T16:28:59;6.30;99.90
28189;DHT22;15471;51.166;4.470;2023-03-14T16:31:25;6.30;99.90
28189;DHT22;15471;51.166;4.470;2023-03-14T16:33:51;6.30;99.90
28189;DHT22;15471;51.166;4.470;2023-03-14T16:36:17;6.30;99.90
28189;DHT22;15471;51.166;4.470;2023-03-14T16:38:44;6.30;99.90
28189;DHT22;15471;51.166;4.470;2023-03-14T16:41:13;6.30;99.90
28189;DHT22;15471;51.166;4.470;2023-03-14T16:43:40;6.30;99.90
28189;DHT22;15471;51.166;4.470;2023-03-14T16:46:09;6.40;99.90
28189;DHT22;15471;51.166;4.470;2023-03-14T16:48:36;6.40;99.90
28189;DHT22;15471;51.166;4.470;2023-03-14T16:51:03;6.30;99.90
28189;DHT22;15471;51.166;4.470;2023-03-14T16:53:29;6.30;99.90
28189;DHT22;15471;51.166;4.470;2023-03-14T16:55:57;6.40;99.90
28189;DHT22;15471;51.166;4.470;2023-03-14T16:58:24;6.40;99.90
28189;DHT22;15471;51.166;4.470;2023-03-14T17:00:50;6.40;99.90
28189;DHT22;15471;51.166;4.470;2023-03-14T17:03:17;6.40;99.90
28189;DHT22;15471;51.166;4.470;2023-03-14T17:05:48;6.40;99.90
28189;DHT22;15471;51.166;4.470;2023-03-14T17:08:16;6.40;99.90
28189;DHT22;15471;51.166;4.470;2023-03-14T17:10:43;6.40;99.90
28189;DHT22;15471;51.166;4.470;2023-03-14T17:13:10;6.40;99.90
28189;DHT22;15471;51.166;4.470;2023-03-14T17:15:36;6.40;99.90